Time,TemperatureF,DewpointF,PressureIn,WindDirection,WindDirectionDegrees,WindSpeedMPH,WindSpeedGustMPH,Humidity,HourlyPrecipIn,Conditions,Clouds,dailyrainin,SoftwareType,DateUTC
2013-07-10 00:01:00,70.9,70.0,30.00,ESE,113,0.0,0.0,97,0.00,,,0.00,VWS V14.01,2013-07-10 04:01:00,
2013-07-10 00:02:00,70.9,70.0,30.00,ESE,113,0.0,0.0,97,0.00,,,0.00,VWS V14.01,2013-07-10 04:02:00,
2013-07-10 00:08:00,70.9,70.0,30.00,ESE,113,0.0,0.0,97,0.00,,,0.00,VWS V14.01,2013-07-10 04:08:00,
2013-07-10 00:13:00,70.9,70.0,30.00,ESE,113,0.0,0.0,97,0.00,,,0.00,VWS V14.01,2013-07-10 04:13:00,
2013-07-10 00:18:00,70.9,70.3,29.99,ESE,113,0.0,0.0,98,0.00,,,0.00,VWS V14.01,2013-07-10 04:18:00,
2013-07-10 00:23:00,71.0,70.4,29.99,ESE,113,0.0,0.0,98,0.00,,,0.00,VWS V14.01,2013-07-10 04:23:00,
2013-07-10 00:28:00,71.0,70.4,29.99,ESE,113,0.0,0.0,98,0.00,,,0.00,VWS V14.01,2013-07-10 04:28:00,
2013-07-10 00:33:00,71.0,70.4,29.99,ESE,113,0.0,0.0,98,0.00,,,0.00,VWS V14.01,2013-07-10 04:33:00,
2013-07-10 00:38:00,70.9,70.0,29.99,ESE,113,0.0,0.0,97,0.00,,,0.00,VWS V14.01,2013-07-10 04:38:00,
2013-07-10 00:43:00,70.9,70.3,29.99,ESE,113,0.0,0.0,98,0.00,,,0.00,VWS V14.01,2013-07-10 04:43:00,
2013-07-10 00:48:00,70.9,70.3,29.98,ESE,113,0.0,0.0,98,0.00,,,0.00,VWS V14.01,2013-07-10 04:48:00,
2013-07-10 00:54:00,70.9,70.0,29.98,ESE,113,0.0,0.0,97,0.00,,,0.00,VWS V14.01,2013-07-10 04:54:00,
2013-07-10 00:59:00,70.8,69.9,29.98,ESE,113,0.0,0.0,97,0.00,,,0.00,VWS V14.01,2013-07-10 04:59:00,
2013-07-10 01:04:00,70.7,69.8,29.98,ESE,113,0.0,0.0,97,0.00,,,0.00,VWS V14.01,2013-07-10 05:04:00,
2013-07-10 01:09:00,70.7,70.1,29.98,ESE,113,0.0,0.0,98,0.00,,,0.00,VWS V14.01,2013-07-10 05:09:00,
2013-07-10 01:14:00,70.7,70.1,29.98,ESE,113,0.0,0.0,98,0.00,,,0.00,VWS V14.01,2013-07-10 05:14:00,
2013-07-10 01:19:00,70.6,70.0,29.98,ESE,113,0.0,0.0,98,0.00,,,0.00,VWS V14.01,2013-07-10 05:19:00,
2013-07-10 01:24:00,70.6,70.0,29.98,ESE,113,0.0,0.0,98,0.00,,,0.00,VWS V14.01,2013-07-10 05:24:00,
2013-07-10 01:29:00,70.6,70.0,29.98,ESE,113,0.0,0.0,98,0.00,,,0.00,VWS V14.01,2013-07-10 05:29:00,
2013-07-10 01:34:00,70.6,70.0,29.97,ESE,113,0.0,0.0,98,0.00,,,0.00,VWS V14.01,2013-07-10 05:34:00,
2013-07-10 01:39:00,70.7,70.1,29.98,ESE,113,0.0,0.0,98,0.00,,,0.00,VWS V14.01,2013-07-10 05:39:00,
2013-07-10 01:45:00,70.7,70.1,29.97,ESE,113,0.0,0.0,98,0.00,,,0.00,VWS V14.01,2013-07-10 05:45:00,
2013-07-10 01:50:00,70.8,70.2,29.97,ESE,113,0.0,0.0,98,0.00,,,0.00,VWS V14.01,2013-07-10 05:50:00,
2013-07-10 01:55:00,70.8,70.2,29.97,ESE,113,0.0,0.0,98,0.00,,,0.00,VWS V14.01,2013-07-10 05:55:00,
2013-07-10 02:00:00,70.9,70.3,29.97,ESE,113,0.0,0.0,98,0.00,,,0.00,VWS V14.01,2013-07-10 06:00:00,
2013-07-10 02:05:00,71.0,70.4,29.97,ESE,113,0.0,0.0,98,0.00,,,0.00,VWS V14.01,2013-07-10 06:05:00,
2013-07-10 02:10:00,71.0,70.4,29.97,ESE,113,0.0,0.0,98,0.00,,,0.00,VWS V14.01,2013-07-10 06:10:00,
2013-07-10 02:15:00,71.0,70.4,29.97,ESE,113,0.0,0.0,98,0.00,,,0.00,VWS V14.01,2013-07-10 06:15:00,
2013-07-10 02:21:00,71.0,70.4,29.97,ESE,113,0.0,0.0,98,0.00,,,0.00,VWS V14.01,2013-07-10 06:21:00,
2013-07-10 02:26:00,71.0,70.4,29.96,ESE,113,0.0,0.0,98,0.00,,,0.00,VWS V14.01,2013-07-10 06:26:00,
2013-07-10 02:31:00,71.1,70.5,29.96,ESE,113,0.0,0.0,98,0.00,,,0.00,VWS V14.01,2013-07-10 06:31:00,
2013-07-10 02:36:00,71.2,70.6,29.96,ESE,113,0.0,0.0,98,0.00,,,0.00,VWS V14.01,2013-07-10 06:36:00,
2013-07-10 02:41:00,71.1,70.5,29.96,ESE,113,0.0,0.0,98,0.00,,,0.00,VWS V14.01,2013-07-10 06:41:00,
2013-07-10 02:46:00,71.2,70.6,29.96,ESE,113,0.0,0.0,98,0.00,,,0.00,VWS V14.01,2013-07-10 06:46:00,
2013-07-10 02:51:00,71.1,70.5,29.96,ESE,113,0.0,0.0,98,0.00,,,0.00,VWS V14.01,2013-07-10 06:51:00,
2013-07-10 02:57:00,71.1,70.5,29.96,ESE,113,0.0,0.0,98,0.00,,,0.00,VWS V14.01,2013-07-10 06:57:00,
2013-07-10 03:02:00,71.2,70.6,29.96,ESE,113,0.0,0.0,98,0.00,,,0.00,VWS V14.01,2013-07-10 07:02:00,
2013-07-10 03:07:00,71.3,70.7,29.95,ESE,113,0.0,0.0,98,0.00,,,0.00,VWS V14.01,2013-07-10 07:07:00,
2013-07-10 03:12:00,71.3,70.7,29.95,ESE,113,0.0,0.0,98,0.00,,,0.00,VWS V14.01,2013-07-10 07:12:00,
2013-07-10 03:17:00,71.4,70.8,29.95,ESE,113,0.0,0.0,98,0.00,,,0.00,VWS V14.01,2013-07-10 07:17:00,
2013-07-10 03:22:00,71.4,70.8,29.95,ESE,113,0.0,0.0,98,0.00,,,0.00,VWS V14.01,2013-07-10 07:22:00,
2013-07-10 03:27:00,71.4,70.8,29.95,ESE,113,0.0,0.0,98,0.00,,,0.00,VWS V14.01,2013-07-10 07:27:00,
2013-07-10 03:32:00,71.4,70.8,29.95,ESE,113,0.0,0.0,98,0.00,,,0.00,VWS V14.01,2013-07-10 07:32:00,
2013-07-10 03:38:00,71.4,70.8,29.95,ESE,113,0.0,0.0,98,0.00,,,0.00,VWS V14.01,2013-07-10 07:38:00,
2013-07-10 03:43:00,71.4,70.8,29.95,ESE,113,0.0,0.0,98,0.00,,,0.00,VWS V14.01,2013-07-10 07:43:00,
2013-07-10 03:48:00,71.4,70.8,29.95,ESE,113,0.0,0.0,98,0.00,,,0.00,VWS V14.01,2013-07-10 07:48:00,
2013-07-10 03:53:00,71.4,70.8,29.95,ESE,113,0.0,0.0,98,0.00,,,0.00,VWS V14.01,2013-07-10 07:53:00,
2013-07-10 03:58:00,71.4,70.8,29.95,ESE,113,0.0,0.0,98,0.00,,,0.00,VWS V14.01,2013-07-10 07:58:00,
2013-07-10 04:03:00,71.4,70.8,29.95,ESE,113,0.0,0.0,98,0.00,,,0.00,VWS V14.01,2013-07-10 08:03:00,
2013-07-10 04:08:00,71.4,70.8,29.95,ESE,113,0.0,0.0,98,0.00,,,0.00,VWS V14.01,2013-07-10 08:08:00,
2013-07-10 04:13:00,71.4,70.8,29.95,ESE,113,0.0,0.0,98,0.00,,,0.00,VWS V14.01,2013-07-10 08:13:00,
2013-07-10 04:19:00,71.4,70.8,29.95,ESE,113,0.0,0.0,98,0.00,,,0.00,VWS V14.01,2013-07-10 08:19:00,
2013-07-10 04:24:00,71.4,70.8,29.95,ESE,113,0.0,0.0,98,0.00,,,0.00,VWS V14.01,2013-07-10 08:24:00,
2013-07-10 04:29:00,71.4,70.8,29.94,ESE,113,0.0,0.0,98,0.00,,,0.00,VWS V14.01,2013-07-10 08:29:00,
2013-07-10 04:34:00,71.5,70.9,29.94,ESE,113,0.0,0.0,98,0.00,,,0.00,VWS V14.01,2013-07-10 08:34:00,
2013-07-10 04:39:00,71.5,70.9,29.95,ESE,113,0.0,0.0,98,0.00,,,0.00,VWS V14.01,2013-07-10 08:39:00,
2013-07-10 04:44:00,71.5,70.9,29.94,ESE,113,0.0,0.0,98,0.00,,,0.00,VWS V14.01,2013-07-10 08:44:00,
2013-07-10 04:49:00,71.5,70.9,29.94,ESE,113,0.0,0.0,98,0.00,,,0.00,VWS V14.01,2013-07-10 08:49:00,
2013-07-10 04:54:00,71.5,70.9,29.94,ESE,113,0.0,0.0,98,0.00,,,0.00,VWS V14.01,2013-07-10 08:54:00,
2013-07-10 04:59:00,71.4,70.8,29.94,ESE,113,0.0,0.0,98,0.00,,,0.00,VWS V14.01,2013-07-10 08:59:00,
2013-07-10 05:05:00,71.3,70.7,29.94,ESE,113,0.0,0.0,98,0.00,,,0.00,VWS V14.01,2013-07-10 09:05:00,
2013-07-10 05:10:00,71.2,70.6,29.94,ESE,113,0.0,0.0,98,0.00,,,0.00,VWS V14.01,2013-07-10 09:10:00,
2013-07-10 05:15:00,71.1,70.5,29.95,ESE,113,0.0,0.0,98,0.00,,,0.00,VWS V14.01,2013-07-10 09:15:00,
2013-07-10 05:20:00,71.0,70.4,29.95,ESE,113,0.0,0.0,98,0.00,,,0.00,VWS V14.01,2013-07-10 09:20:00,
2013-07-10 05:25:00,70.9,70.3,29.95,ESE,113,0.0,0.0,98,0.00,,,0.00,VWS V14.01,2013-07-10 09:25:00,
2013-07-10 05:30:00,70.8,70.2,29.95,ESE,113,0.0,0.0,98,0.00,,,0.00,VWS V14.01,2013-07-10 09:30:00,
2013-07-10 05:35:00,70.9,70.3,29.95,ESE,113,0.0,0.0,98,0.00,,,0.00,VWS V14.01,2013-07-10 09:35:00,
2013-07-10 05:40:00,70.9,70.3,29.95,ESE,113,0.0,0.0,98,0.00,,,0.00,VWS V14.01,2013-07-10 09:40:00,
2013-07-10 05:45:00,70.9,70.3,29.95,ESE,113,0.0,0.0,98,0.00,,,0.00,VWS V14.01,2013-07-10 09:45:00,
2013-07-10 05:51:00,71.0,70.4,29.95,ESE,113,0.0,0.0,98,0.00,,,0.00,VWS V14.01,2013-07-10 09:51:00,
2013-07-10 05:56:00,71.0,70.4,29.95,ESE,113,0.0,0.0,98,0.00,,,0.00,VWS V14.01,2013-07-10 09:56:00,
2013-07-10 06:01:00,71.1,70.5,29.95,ESE,113,0.0,0.0,98,0.00,,,0.00,VWS V14.01,2013-07-10 10:01:00,
2013-07-10 06:06:00,71.1,70.5,29.95,ESE,113,0.0,0.0,98,0.00,,,0.00,VWS V14.01,2013-07-10 10:06:00,
2013-07-10 06:11:00,71.2,70.9,29.95,ESE,113,0.0,0.0,99,0.00,,,0.00,VWS V14.01,2013-07-10 10:11:00,
2013-07-10 06:16:00,71.2,70.9,29.95,ESE,113,0.0,0.0,99,0.00,,,0.00,VWS V14.01,2013-07-10 10:16:00,
2013-07-10 06:21:00,71.3,71.0,29.95,ESE,113,0.0,0.0,99,0.00,,,0.00,VWS V14.01,2013-07-10 10:21:00,
2013-07-10 06:26:00,71.5,71.2,29.94,ESE,113,0.0,0.0,99,0.00,,,0.00,VWS V14.01,2013-07-10 10:26:00,
2013-07-10 06:31:00,71.5,71.2,29.95,ESE,113,0.0,0.0,99,0.00,,,0.00,VWS V14.01,2013-07-10 10:31:00,
2013-07-10 06:37:00,71.6,71.3,29.94,ESE,113,0.0,0.0,99,0.00,,,0.00,VWS V14.01,2013-07-10 10:37:00,
2013-07-10 06:42:00,71.6,71.0,29.95,ESE,113,0.0,0.0,98,0.00,,,0.00,VWS V14.01,2013-07-10 10:42:00,
2013-07-10 06:47:00,71.6,71.0,29.94,ESE,113,0.0,0.0,98,0.00,,,0.00,VWS V14.01,2013-07-10 10:47:00,
2013-07-10 06:52:00,71.7,71.1,29.94,ESE,113,0.0,0.0,98,0.00,,,0.00,VWS V14.01,2013-07-10 10:52:00,
2013-07-10 06:57:00,71.7,71.1,29.94,ESE,113,0.0,0.0,98,0.00,,,0.00,VWS V14.01,2013-07-10 10:57:00,
2013-07-10 07:02:00,71.9,71.6,29.94,ESE,113,0.0,0.0,99,0.00,,,0.00,VWS V14.01,2013-07-10 11:02:00,
2013-07-10 07:07:00,72.1,71.8,29.94,ESE,113,0.0,0.0,99,0.00,,,0.00,VWS V14.01,2013-07-10 11:07:00,
2013-07-10 07:12:00,72.2,71.6,29.94,ESE,113,0.0,0.0,98,0.00,,,0.00,VWS V14.01,2013-07-10 11:12:00,
2013-07-10 07:18:00,72.0,71.4,29.94,ESE,113,0.0,1.0,98,0.00,,,0.00,VWS V14.01,2013-07-10 11:18:00,
2013-07-10 07:23:00,72.1,71.5,29.94,ESE,113,0.0,1.0,98,0.00,,,0.00,VWS V14.01,2013-07-10 11:23:00,
2013-07-10 07:28:00,72.3,71.7,29.94,ESE,113,0.0,1.0,98,0.00,,,0.00,VWS V14.01,2013-07-10 11:28:00,
2013-07-10 07:33:00,72.5,71.9,29.94,ESE,113,0.0,0.0,98,0.00,,,0.00,VWS V14.01,2013-07-10 11:33:00,
2013-07-10 07:38:00,72.8,71.9,29.94,ESE,113,0.0,0.0,97,0.00,,,0.00,VWS V14.01,2013-07-10 11:38:00,
2013-07-10 07:43:00,73.0,71.8,29.93,ESE,113,0.0,0.0,96,0.00,,,0.00,VWS V14.01,2013-07-10 11:43:00,
2013-07-10 07:48:00,73.3,72.1,29.93,ESE,113,0.0,0.0,96,0.00,,,0.00,VWS V14.01,2013-07-10 11:48:00,
2013-07-10 07:53:00,73.6,72.1,29.93,ESE,113,0.0,1.0,95,0.00,,,0.00,VWS V14.01,2013-07-10 11:53:00,
2013-07-10 07:58:00,74.0,72.5,29.93,ESE,113,0.0,1.0,95,0.00,,,0.00,VWS V14.01,2013-07-10 11:58:00,
2013-07-10 08:03:00,74.6,72.8,29.93,ESE,113,0.0,1.0,94,0.00,,,0.00,VWS V14.01,2013-07-10 12:03:00,
2013-07-10 08:08:00,75.1,72.9,29.93,ESE,113,0.0,1.0,93,0.00,,,0.00,VWS V14.01,2013-07-10 12:08:00,
2013-07-10 08:14:00,75.7,73.2,29.93,ESE,113,0.0,1.0,92,0.00,,,0.00,VWS V14.01,2013-07-10 12:14:00,
2013-07-10 08:19:00,76.2,73.4,29.93,East,89,0.0,3.0,91,0.00,,,0.00,VWS V14.01,2013-07-10 12:19:00,
2013-07-10 08:24:00,76.5,73.3,29.93,East,89,0.0,3.0,90,0.00,,,0.00,VWS V14.01,2013-07-10 12:24:00,
2013-07-10 08:29:00,76.9,74.1,29.93,East,89,0.0,3.0,91,0.00,,,0.00,VWS V14.01,2013-07-10 12:29:00,
2013-07-10 08:34:00,77.3,73.8,29.93,East,89,1.0,3.0,89,0.00,,,0.00,VWS V14.01,2013-07-10 12:34:00,
2013-07-10 08:39:00,77.7,74.2,29.93,East,89,0.0,3.0,89,0.00,,,0.00,VWS V14.01,2013-07-10 12:39:00,
2013-07-10 08:44:00,78.3,74.8,29.93,East,89,0.0,3.0,89,0.00,,,0.00,VWS V14.01,2013-07-10 12:44:00,
2013-07-10 08:49:00,78.4,73.9,29.93,East,89,0.0,3.0,86,0.00,,,0.00,VWS V14.01,2013-07-10 12:49:00,
2013-07-10 08:54:00,78.3,74.1,29.93,East,90,0.0,4.0,87,0.00,,,0.00,VWS V14.01,2013-07-10 12:54:00,
2013-07-10 08:59:00,78.1,73.9,29.92,East,88,0.0,4.0,87,0.00,,,0.00,VWS V14.01,2013-07-10 12:59:00,
2013-07-10 09:04:00,78.3,74.5,29.92,East,88,0.0,1.0,88,0.00,,,0.00,VWS V14.01,2013-07-10 13:04:00,
2013-07-10 09:10:00,78.7,74.2,29.92,South,172,0.0,2.0,86,0.00,,,0.00,VWS V14.01,2013-07-10 13:10:00,
2013-07-10 09:15:00,79.1,74.9,29.92,South,172,0.0,2.0,87,0.00,,,0.00,VWS V14.01,2013-07-10 13:15:00,
2013-07-10 09:20:00,79.2,75.3,29.92,South,172,0.0,4.0,88,0.00,,,0.00,VWS V14.01,2013-07-10 13:20:00,
2013-07-10 09:25:00,79.2,75.0,29.91,South,172,0.0,4.0,87,0.00,,,0.00,VWS V14.01,2013-07-10 13:25:00,
2013-07-10 09:30:00,79.2,75.3,29.91,South,172,0.0,4.0,88,0.00,,,0.00,VWS V14.01,2013-07-10 13:30:00,
2013-07-10 09:35:00,79.1,74.9,29.91,South,172,0.0,1.0,87,0.00,,,0.00,VWS V14.01,2013-07-10 13:35:00,
2013-07-10 09:40:00,79.1,74.9,29.91,South,172,0.0,1.0,87,0.00,,,0.00,VWS V14.01,2013-07-10 13:40:00,
2013-07-10 09:45:00,79.0,74.8,29.91,SSE,157,0.0,2.0,87,0.00,,,0.00,VWS V14.01,2013-07-10 13:45:00,
2013-07-10 09:51:00,78.9,74.7,29.91,SSE,165,0.0,4.0,87,0.00,,,0.00,VWS V14.01,2013-07-10 13:51:00,
2013-07-10 09:56:00,78.7,75.2,29.91,SSE,165,0.0,4.0,89,0.00,,,0.00,VWS V14.01,2013-07-10 13:56:00,
2013-07-10 10:01:00,78.7,74.8,29.91,SSE,165,0.0,0.0,88,0.00,,,0.00,VWS V14.01,2013-07-10 14:01:00,
2013-07-10 10:06:00,78.7,74.8,29.91,SSE,165,0.0,1.0,88,0.00,,,0.00,VWS V14.01,2013-07-10 14:06:00,
2013-07-10 10:11:00,78.5,74.7,29.90,SSE,165,0.0,1.0,88,0.00,,,0.00,VWS V14.01,2013-07-10 14:11:00,
2013-07-10 10:16:00,78.7,75.2,29.90,SSW,202,1.0,1.0,89,0.00,,,0.00,VWS V14.01,2013-07-10 14:16:00,
2013-07-10 10:21:00,79.2,75.7,29.90,ESE,105,0.0,2.0,89,0.00,,,0.00,VWS V14.01,2013-07-10 14:21:00,
2013-07-10 10:26:00,79.7,75.8,29.90,SSW,202,0.0,3.0,88,0.00,,,0.00,VWS V14.01,2013-07-10 14:26:00,
2013-07-10 10:31:00,80.1,75.5,29.90,ESE,119,0.0,0.0,86,0.00,,,0.00,VWS V14.01,2013-07-10 14:31:00,
2013-07-10 10:36:00,80.3,76.1,29.90,SE,135,0.0,1.0,87,0.00,,,0.00,VWS V14.01,2013-07-10 14:36:00,
2013-07-10 10:41:00,80.2,75.6,29.90,SSE,149,2.0,4.0,86,0.00,,,0.00,VWS V14.01,2013-07-10 14:41:00,
2013-07-10 10:46:00,80.0,75.4,29.90,South,182,1.0,4.0,86,0.00,,,0.00,VWS V14.01,2013-07-10 14:46:00,
2013-07-10 18:51:00,76.3,75.4,29.79,NNW,331,0.0,0.0,97,0.06,,,0.25,VWS V14.01,2013-07-10 22:51:00,
2013-07-10 18:56:00,76.2,75.3,29.79,NNW,331,0.0,0.0,97,0.06,,,0.25,VWS V14.01,2013-07-10 22:56:00,
2013-07-10 19:01:00,76.0,75.1,29.80,NNW,331,0.0,0.0,97,0.04,,,0.26,VWS V14.01,2013-07-10 23:01:00,
2013-07-10 19:06:00,75.9,75.0,29.80,NNW,331,0.0,0.0,97,0.04,,,0.26,VWS V14.01,2013-07-10 23:06:00,
2013-07-10 19:11:00,75.8,74.9,29.80,NNW,331,0.0,0.0,97,0.04,,,0.26,VWS V14.01,2013-07-10 23:11:00,
2013-07-10 19:16:00,75.7,74.8,29.79,NNW,331,0.0,0.0,97,0.04,,,0.26,VWS V14.01,2013-07-10 23:16:00,
2013-07-10 19:21:00,75.6,74.7,29.80,NNW,331,0.0,0.0,97,0.04,,,0.26,VWS V14.01,2013-07-10 23:21:00,
2013-07-10 19:26:00,75.4,74.5,29.80,NNW,331,0.0,0.0,97,0.05,,,0.27,VWS V14.01,2013-07-10 23:26:00,
2013-07-10 19:32:00,75.3,74.4,29.80,NNW,331,0.0,0.0,97,0.03,,,0.27,VWS V14.01,2013-07-10 23:32:00,
2013-07-10 19:37:00,75.4,74.5,29.81,NNW,331,0.0,0.0,97,0.04,,,0.28,VWS V14.01,2013-07-10 23:37:00,
2013-07-10 19:42:00,75.4,74.8,29.80,NNW,331,0.0,0.0,98,0.04,,,0.28,VWS V14.01,2013-07-10 23:42:00,
2013-07-10 19:47:00,75.4,74.8,29.80,NNW,331,0.0,0.0,98,0.04,,,0.28,VWS V14.01,2013-07-10 23:47:00,
2013-07-10 19:52:00,75.3,74.7,29.80,NNW,331,0.0,0.0,98,0.04,,,0.28,VWS V14.01,2013-07-10 23:52:00,
2013-07-10 19:57:00,75.3,74.7,29.80,NNW,331,0.0,0.0,98,0.04,,,0.28,VWS V14.01,2013-07-10 23:57:00,
2013-07-10 20:02:00,75.2,74.6,29.80,NNW,331,0.0,0.0,98,0.02,,,0.28,VWS V14.01,2013-07-11 00:02:00,
2013-07-10 20:07:00,75.1,74.5,29.80,NNW,331,0.0,0.0,98,0.03,,,0.29,VWS V14.01,2013-07-11 00:07:00,
2013-07-10 20:12:00,75.1,74.5,29.80,NNW,331,0.0,0.0,98,0.03,,,0.29,VWS V14.01,2013-07-11 00:12:00,
2013-07-10 20:17:00,75.0,74.4,29.80,NNW,331,0.0,0.0,98,0.03,,,0.29,VWS V14.01,2013-07-11 00:17:00,
2013-07-10 20:22:00,74.9,74.3,29.80,NNW,331,0.0,0.0,98,0.04,,,0.30,VWS V14.01,2013-07-11 00:22:00,
2013-07-10 20:28:00,74.8,74.2,29.80,NNW,331,0.0,0.0,98,0.04,,,0.30,VWS V14.01,2013-07-11 00:28:00,
2013-07-10 20:33:00,74.6,74.0,29.80,NNW,331,0.0,0.0,98,0.03,,,0.30,VWS V14.01,2013-07-11 00:33:00,
2013-07-10 20:38:00,74.5,73.9,29.80,NNW,331,0.0,0.0,98,0.03,,,0.30,VWS V14.01,2013-07-11 00:38:00,
2013-07-10 20:43:00,74.4,73.8,29.80,NNW,331,0.0,0.0,98,0.03,,,0.30,VWS V14.01,2013-07-11 00:43:00,
2013-07-10 20:48:00,74.3,73.7,29.80,NNW,331,0.0,0.0,98,0.03,,,0.30,VWS V14.01,2013-07-11 00:48:00,
2013-07-10 20:53:00,74.2,73.6,29.80,NNW,331,0.0,0.0,98,0.04,,,0.31,VWS V14.01,2013-07-11 00:53:00,
2013-07-10 20:58:00,74.1,73.5,29.80,NNW,331,0.0,0.0,98,0.04,,,0.31,VWS V14.01,2013-07-11 00:58:00,
2013-07-10 21:03:00,74.0,73.4,29.80,NNW,331,0.0,0.0,98,0.03,,,0.31,VWS V14.01,2013-07-11 01:03:00,
2013-07-10 21:08:00,74.0,73.4,29.80,NNW,331,0.0,0.0,98,0.04,,,0.32,VWS V14.01,2013-07-11 01:08:00,
2013-07-10 21:13:00,73.9,73.3,29.80,NNW,331,0.0,0.0,98,0.04,,,0.32,VWS V14.01,2013-07-11 01:13:00,
2013-07-10 21:18:00,73.9,73.3,29.81,NNW,331,0.0,0.0,98,0.04,,,0.32,VWS V14.01,2013-07-11 01:18:00,
2013-07-10 21:24:00,73.8,73.2,29.81,NNW,331,0.0,0.0,98,0.04,,,0.32,VWS V14.01,2013-07-11 01:24:00,
2013-07-10 21:29:00,73.7,73.1,29.81,NNW,331,0.0,0.0,98,0.04,,,0.32,VWS V14.01,2013-07-11 01:29:00,
2013-07-10 21:34:00,73.6,73.0,29.81,NNW,331,0.0,0.0,98,0.02,,,0.32,VWS V14.01,2013-07-11 01:34:00,
2013-07-10 21:39:00,73.5,72.9,29.81,NNW,331,0.0,0.0,98,0.02,,,0.32,VWS V14.01,2013-07-11 01:39:00,
2013-07-10 21:44:00,73.5,72.9,29.81,NNW,331,0.0,0.0,98,0.02,,,0.32,VWS V14.01,2013-07-11 01:44:00,
2013-07-10 21:49:00,73.5,72.9,29.81,NNW,331,0.0,0.0,98,0.03,,,0.33,VWS V14.01,2013-07-11 01:49:00,
2013-07-10 21:54:00,73.5,72.9,29.81,NNW,331,0.0,0.0,98,0.03,,,0.33,VWS V14.01,2013-07-11 01:54:00,
2013-07-10 21:59:00,73.5,72.9,29.81,NNW,331,0.0,0.0,98,0.03,,,0.33,VWS V14.01,2013-07-11 01:59:00,
2013-07-10 22:04:00,73.5,72.9,29.81,NNW,331,0.0,0.0,98,0.03,,,0.34,VWS V14.01,2013-07-11 02:04:00,
2013-07-10 22:09:00,73.4,72.8,29.81,NNW,331,0.0,0.0,98,0.03,,,0.34,VWS V14.01,2013-07-11 02:09:00,
2013-07-10 22:15:00,73.3,72.7,29.81,NNW,331,0.0,0.0,98,0.03,,,0.34,VWS V14.01,2013-07-11 02:15:00,
2013-07-10 22:20:00,73.3,72.7,29.81,NNW,331,0.0,0.0,98,0.03,,,0.34,VWS V14.01,2013-07-11 02:20:00,
2013-07-10 22:25:00,73.2,72.6,29.81,NNW,331,0.0,0.0,98,0.03,,,0.34,VWS V14.01,2013-07-11 02:25:00,
2013-07-10 22:30:00,73.1,72.5,29.82,NNW,331,0.0,0.0,98,0.03,,,0.34,VWS V14.01,2013-07-11 02:30:00,
2013-07-10 22:35:00,73.1,72.5,29.81,NNW,331,0.0,0.0,98,0.02,,,0.34,VWS V14.01,2013-07-11 02:35:00,
2013-07-10 22:40:00,73.0,72.4,29.81,NNW,331,0.0,0.0,98,0.02,,,0.34,VWS V14.01,2013-07-11 02:40:00,
2013-07-10 22:45:00,73.0,72.4,29.81,NNW,331,0.0,0.0,98,0.02,,,0.34,VWS V14.01,2013-07-11 02:45:00,
2013-07-10 22:50:00,72.8,72.2,29.81,NNW,331,0.0,0.0,98,0.02,,,0.34,VWS V14.01,2013-07-11 02:50:00,
2013-07-10 22:55:00,72.7,72.1,29.81,NNW,331,0.0,0.0,98,0.03,,,0.35,VWS V14.01,2013-07-11 02:55:00,
2013-07-10 23:00:00,72.6,72.0,29.81,NNW,331,0.0,0.0,98,0.03,,,0.35,VWS V14.01,2013-07-11 03:00:00,
2013-07-10 23:05:00,72.6,72.0,29.81,NNW,331,0.0,0.0,98,0.02,,,0.35,VWS V14.01,2013-07-11 03:05:00,
2013-07-10 23:10:00,72.5,71.9,29.81,NNW,331,0.0,0.0,98,0.03,,,0.36,VWS V14.01,2013-07-11 03:10:00,
2013-07-10 23:15:00,72.4,71.8,29.80,NNW,331,0.0,0.0,98,0.03,,,0.36,VWS V14.01,2013-07-11 03:15:00,
2013-07-10 23:21:00,72.3,71.7,29.80,NNW,331,0.0,0.0,98,0.03,,,0.36,VWS V14.01,2013-07-11 03:21:00,
2013-07-10 23:26:00,72.2,71.6,29.80,NNW,331,0.0,0.0,98,0.03,,,0.36,VWS V14.01,2013-07-11 03:26:00,
2013-07-10 23:31:00,72.1,71.5,29.80,NNW,331,0.0,0.0,98,0.02,,,0.36,VWS V14.01,2013-07-11 03:31:00,
2013-07-10 23:36:00,72.0,71.4,29.80,NNW,331,0.0,0.0,98,0.02,,,0.36,VWS V14.01,2013-07-11 03:36:00,
2013-07-10 23:41:00,71.8,71.2,29.80,NNW,331,0.0,0.0,98,0.02,,,0.36,VWS V14.01,2013-07-11 03:41:00,
2013-07-10 23:46:00,71.7,71.1,29.79,NNW,331,0.0,0.0,98,0.02,,,0.36,VWS V14.01,2013-07-11 03:46:00,
2013-07-10 23:51:00,71.6,71.0,29.79,NNW,331,0.0,0.0,98,0.02,,,0.36,VWS V14.01,2013-07-11 03:51:00,
2013-07-10 23:56:00,71.6,71.0,29.79,NNW,331,0.0,0.0,98,0.02,,,0.36,VWS V14.01,2013-07-11 03:56:00,